createdAt,value
2023-03-17T00:00:26.135Z,96722.31
2023-03-17T00:02:52.622Z,96721.53
2023-03-17T00:05:20.878Z,96721.34
2023-03-17T00:07:47.454Z,96719.00
2023-03-17T00:10:18.825Z,96712.97
2023-03-17T00:12:46.281Z,96711.00
2023-03-17T00:15:14.834Z,96709.78
2023-03-17T00:17:42.366Z,96706.59
2023-03-17T00:20:14.742Z,96698.38
2023-03-17T00:22:41.249Z,96695.38
2023-03-17T00:25:20.773Z,96690.78
2023-03-17T00:27:47.420Z,96679.94
2023-03-17T00:30:14.142Z,96686.19
2023-03-17T00:32:41.138Z,96685.59
2023-03-17T00:35:27.832Z,96681.38
2023-03-17T00:37:57.057Z,96677.16
2023-03-17T00:40:26.321Z,96683.38
2023-03-17T00:42:53.399Z,96677.38
2023-03-17T00:45:22.027Z,96678.16
2023-03-17T00:47:50.272Z,96676.56
2023-03-17T00:50:24.294Z,96669.75
2023-03-17T00:52:53.212Z,96672.16
2023-03-17T00:55:21.402Z,96675.53
2023-03-17T00:57:49.057Z,96667.72
2023-03-17T01:00:27.374Z,96663.88
2023-03-17T01:02:56.716Z,96668.91
2023-03-17T01:05:25.678Z,96663.25
2023-03-17T01:07:57.836Z,96657.22
2023-03-17T01:10:26.793Z,96665.66
2023-03-17T01:12:55.596Z,96654.41
2023-03-17T01:15:23.096Z,96636.56
2023-03-17T01:17:50.597Z,96635.53
2023-03-17T01:20:22.652Z,96635.53
2023-03-17T01:22:50.526Z,96634.97
2023-03-17T01:25:18.455Z,96633.16
2023-03-17T01:27:46.422Z,96620.28
2023-03-17T01:30:32.879Z,96616.69
2023-03-17T01:33:00.145Z,96622.31
2023-03-17T01:35:29.384Z,96627.53
2023-03-17T01:37:57.168Z,96632.75
2023-03-17T01:40:30.527Z,96627.13
2023-03-17T01:43:06.073Z,96626.88
2023-03-17T01:46:11.720Z,96629.13
2023-03-17T01:48:42.720Z,96629.13
2023-03-17T01:51:13.730Z,96621.28
2023-03-17T01:53:40.379Z,96631.75
2023-03-17T01:56:08.084Z,96627.53
2023-03-17T01:58:34.545Z,96627.53
2023-03-17T02:01:01.637Z,96610.84
2023-03-17T02:03:29.782Z,96608.66
2023-03-17T02:05:57.871Z,96614.72
2023-03-17T02:08:24.585Z,96610.72
2023-03-17T02:10:52.380Z,96618.75
2023-03-17T02:13:19.101Z,96620.78
2023-03-17T02:15:48.562Z,96624.41
2023-03-17T02:18:17.654Z,96622.19
2023-03-17T02:20:46.921Z,96618.41
2023-03-17T02:23:19.116Z,96611.97
2023-03-17T02:25:47.434Z,96612.38
2023-03-17T02:28:16.245Z,96618.41
2023-03-17T02:30:43.675Z,96613.19
2023-03-17T02:33:11.965Z,96611.63
2023-03-17T02:35:39.609Z,96609.63
2023-03-17T02:38:06.268Z,96612.44
2023-03-17T02:40:33.179Z,96610.66
2023-03-17T02:42:59.832Z,96604.84
2023-03-17T02:45:27.216Z,96608.44
2023-03-17T02:47:54.967Z,96608.44
2023-03-17T02:50:24.934Z,96599.25
2023-03-17T02:52:54.754Z,96609.88
2023-03-17T02:55:21.136Z,96608.28
2023-03-17T02:57:47.552Z,96601.84
2023-03-17T03:00:14.400Z,96595.41
2023-03-17T03:02:41.515Z,96593.41
2023-03-17T03:05:08.861Z,96597.63
2023-03-17T03:07:35.303Z,96590.38
2023-03-17T03:10:02.365Z,96598.78
2023-03-17T03:12:28.888Z,96592.56
2023-03-17T03:14:55.575Z,96597.59
2023-03-17T03:17:22.273Z,96589.53
2023-03-17T03:19:49.700Z,96596.78
2023-03-17T03:22:16.220Z,96590.78
2023-03-17T03:24:42.678Z,96588.72
2023-03-17T03:27:09.152Z,96601.59
2023-03-17T03:29:35.567Z,96596.38
2023-03-17T03:32:04.663Z,96595.97
2023-03-17T03:34:31.849Z,96589.53
2023-03-17T03:36:58.519Z,96601.59
2023-03-17T03:39:25.031Z,96603.66
2023-03-17T03:41:51.437Z,96598.09
2023-03-17T03:44:17.869Z,96600.91
2023-03-17T03:46:44.417Z,96592.47
2023-03-17T03:49:10.822Z,96591.72
2023-03-17T03:51:37.363Z,96585.72
2023-03-17T03:54:03.757Z,96583.94
2023-03-17T03:56:30.214Z,96588.16
2023-03-17T03:58:57.201Z,96594.56
2023-03-17T04:01:24.619Z,96591.75
2023-03-17T04:03:51.265Z,96592.19
2023-03-17T04:06:17.836Z,96594.19
2023-03-17T04:08:44.292Z,96590.38
2023-03-17T04:11:10.776Z,96586.59
2023-03-17T04:13:37.790Z,96582.56
2023-03-17T04:16:04.705Z,96576.75
2023-03-17T04:18:31.692Z,96578.78
2023-03-17T04:20:58.182Z,96578.38
2023-03-17T04:23:24.581Z,96576.56
2023-03-17T04:25:53.103Z,96577.59
2023-03-17T04:28:20.479Z,96584.19
2023-03-17T04:30:47.239Z,96584.81
2023-03-17T04:33:13.824Z,96578.41
2023-03-17T04:35:40.718Z,96574.59
2023-03-17T04:38:07.182Z,96568.97
2023-03-17T04:40:33.719Z,96574.19
2023-03-17T04:43:01.891Z,96569.38
2023-03-17T04:45:29.929Z,96565.75
2023-03-17T04:47:56.610Z,96567.78
2023-03-17T04:50:23.354Z,96559.34
2023-03-17T04:52:49.823Z,96567.16
2023-03-17T04:55:16.606Z,96574.59
2023-03-17T04:57:44.128Z,96565.38
2023-03-17T05:00:12.606Z,96568.97
2023-03-17T05:02:39.212Z,96564.97
2023-03-17T05:05:05.879Z,96569.78
2023-03-17T05:07:34.141Z,96564.16
2023-03-17T05:10:00.757Z,96556.97
2023-03-17T05:12:27.404Z,96560.97
2023-03-17T05:14:53.759Z,96556.16
2023-03-17T05:17:20.699Z,96558.16
2023-03-17T05:19:47.176Z,96561.16
2023-03-17T05:22:13.576Z,96554.94
2023-03-17T05:24:39.961Z,96571.38
2023-03-17T05:27:06.345Z,96558.53
2023-03-17T05:29:32.717Z,96563.38
2023-03-17T05:31:59.413Z,96564.53
2023-03-17T05:34:25.858Z,96567.56
2023-03-17T05:36:52.343Z,96570.53
2023-03-17T05:39:18.805Z,96575.94
2023-03-17T05:41:45.442Z,96574.13
2023-03-17T05:44:12.064Z,96570.16
2023-03-17T05:46:38.589Z,96564.97
2023-03-17T05:49:05.259Z,96568.16
2023-03-17T05:51:31.726Z,96576.16
2023-03-17T05:53:58.402Z,96568.59
2023-03-17T05:56:26.796Z,96569.78
2023-03-17T05:58:53.163Z,96560.97
2023-03-17T06:01:19.668Z,96565.75
2023-03-17T06:03:46.122Z,96575.38
2023-03-17T06:06:12.746Z,96565.78
2023-03-17T06:08:39.188Z,96575.41
2023-03-17T06:11:05.776Z,96568.16
2023-03-17T06:13:32.249Z,96565.75
2023-03-17T06:15:58.961Z,96572.78
2023-03-17T06:18:25.402Z,96562.53
2023-03-17T06:20:51.876Z,96564.16
2023-03-17T06:23:18.902Z,96566.56
2023-03-17T06:25:45.311Z,96576.97
2023-03-17T06:28:11.818Z,96578.56
2023-03-17T06:30:40.619Z,96583.78
2023-03-17T06:33:08.201Z,96584.56
2023-03-17T06:35:35.079Z,96579.31
2023-03-17T06:38:02.261Z,96575.69
2023-03-17T06:40:29.189Z,96575.66
2023-03-17T06:42:55.663Z,96569.44
2023-03-17T06:45:22.097Z,96572.41
2023-03-17T06:47:48.546Z,96574.31
2023-03-17T06:50:15.375Z,96575.38
2023-03-17T06:52:41.933Z,96568.88
2023-03-17T06:55:08.765Z,96571.44
2023-03-17T06:57:35.798Z,96573.53
2023-03-17T07:00:02.378Z,96564.81
2023-03-17T07:02:28.953Z,96568.88
2023-03-17T07:04:57.713Z,96582.94
2023-03-17T07:07:24.827Z,96583.31
2023-03-17T07:09:52.754Z,96588.94
2023-03-17T07:12:20.100Z,96584.66
2023-03-17T07:14:46.615Z,96593.47
2023-03-17T07:17:14.594Z,96593.28
2023-03-17T07:19:42.313Z,96599.13
2023-03-17T07:22:11.872Z,96588.03
2023-03-17T07:24:38.570Z,96587.56
2023-03-17T07:27:05.056Z,96593.28
2023-03-17T07:29:33.745Z,96587.44
2023-03-17T07:32:01.221Z,96586.50
2023-03-17T07:34:28.209Z,96586.81
2023-03-17T07:36:54.821Z,96590.81
2023-03-17T07:39:21.507Z,96587.41
2023-03-17T07:41:52.923Z,96594.19
2023-03-17T07:44:19.823Z,96576.03
2023-03-17T07:46:46.602Z,96577.66
2023-03-17T07:49:13.222Z,96573.03
2023-03-17T07:51:43.077Z,96572.47
2023-03-17T07:54:10.664Z,96575.59
2023-03-17T07:56:37.122Z,96578.59
2023-03-17T07:59:04.570Z,96581.47
2023-03-17T08:01:31.452Z,96584.53
2023-03-17T08:03:58.019Z,96579.28
2023-03-17T08:06:28.100Z,96583.59
2023-03-17T08:08:54.881Z,96573.44
2023-03-17T08:11:21.957Z,96576.91
2023-03-17T08:13:48.428Z,96574.06
2023-03-17T08:16:16.794Z,96578.22
2023-03-17T08:18:43.205Z,96585.22
2023-03-17T08:21:09.816Z,96573.88
2023-03-17T08:23:36.512Z,96578.59
2023-03-17T08:26:04.539Z,96584.59
2023-03-17T08:28:31.790Z,96573.81
2023-03-17T08:31:17.219Z,96574.81
2023-03-17T08:33:50.138Z,96569.34
2023-03-17T08:36:18.719Z,96565.19
2023-03-17T08:38:46.612Z,96564.25
2023-03-17T08:41:17.040Z,96570.06
2023-03-17T08:43:46.366Z,96565.31
2023-03-17T08:46:19.221Z,96564.31
2023-03-17T08:48:48.164Z,96562.28
2023-03-17T08:51:18.557Z,96560.78
2023-03-17T08:53:46.358Z,96557.94
2023-03-17T08:56:14.110Z,96559.75
2023-03-17T08:58:40.459Z,96560.28
2023-03-17T09:01:07.106Z,96560.81
2023-03-17T09:03:33.783Z,96550.22
2023-03-17T09:06:00.467Z,96552.84
2023-03-17T09:08:27.916Z,96540.16
2023-03-17T09:10:54.453Z,96543.13
2023-03-17T09:13:22.278Z,96552.66
2023-03-17T09:15:51.305Z,96544.38
2023-03-17T09:18:21.391Z,96547.78
2023-03-17T09:20:48.574Z,96544.16
2023-03-17T09:23:16.011Z,96546.56
2023-03-17T09:25:42.864Z,96548.97
2023-03-17T09:28:12.381Z,96551.44
2023-03-17T09:30:42.876Z,96544.63
2023-03-17T09:33:13.924Z,96549.56
2023-03-17T09:35:41.217Z,96559.28
2023-03-17T09:38:08.076Z,96558.00
2023-03-17T09:40:57.505Z,96550.31
2023-03-17T09:43:44.071Z,96561.34
2023-03-17T09:46:35.347Z,96569.53
2023-03-17T09:49:07.958Z,96557.03
2023-03-17T09:51:36.117Z,96557.25
2023-03-17T09:54:11.548Z,96559.28
2023-03-17T09:56:41.983Z,96566.50
2023-03-17T09:59:30.318Z,96548.66
2023-03-17T10:01:57.126Z,96546.75
2023-03-17T10:04:24.157Z,96545.03
2023-03-17T10:06:52.377Z,96541.84
2023-03-17T10:09:40.272Z,96541.94
2023-03-17T10:12:19.110Z,96535.38
2023-03-17T10:15:02.681Z,96532.94
2023-03-17T10:17:37.490Z,96531.47
2023-03-17T10:20:08.840Z,96517.06
2023-03-17T10:22:54.792Z,96521.84
2023-03-17T10:25:22.491Z,96523.28
2023-03-17T10:27:59.904Z,96523.00
2023-03-17T10:30:26.626Z,96526.16
2023-03-17T10:32:58.860Z,96515.81
2023-03-17T10:35:25.882Z,96507.56
2023-03-17T10:38:04.428Z,96499.09
2023-03-17T10:40:38.416Z,96500.94
2023-03-17T10:43:08.653Z,96489.09
2023-03-17T10:45:44.006Z,96496.94
2023-03-17T10:48:17.395Z,96504.97
2023-03-17T10:50:48.618Z,96494.84
2023-03-17T10:53:30.220Z,96504.16
2023-03-17T10:55:59.643Z,96489.16
2023-03-17T10:58:29.205Z,96488.22
2023-03-17T11:01:05.702Z,96484.63
2023-03-17T11:03:38.723Z,96489.50
2023-03-17T11:06:13.460Z,96490.34
2023-03-17T11:08:45.574Z,96482.69
2023-03-17T11:11:30.479Z,96490.16
2023-03-17T11:14:19.004Z,96481.31
2023-03-17T11:16:55.048Z,96482.97
2023-03-17T11:19:50.334Z,96485.53
2023-03-17T11:22:24.863Z,96475.78
2023-03-17T11:25:15.296Z,96469.22
2023-03-17T11:27:47.986Z,96459.03
2023-03-17T11:30:42.319Z,96460.84
2023-03-17T11:33:09.113Z,96452.63
2023-03-17T11:35:38.428Z,96450.09
2023-03-17T11:38:11.001Z,96448.06
2023-03-17T11:41:02.184Z,96448.44
2023-03-17T11:43:47.966Z,96443.81
2023-03-17T11:46:33.116Z,96445.38
2023-03-17T11:49:14.722Z,96437.97
2023-03-17T11:52:04.955Z,96432.03
2023-03-17T11:54:54.589Z,96431.75
2023-03-17T11:57:39.657Z,96433.97
2023-03-17T12:00:31.730Z,96432.16
2023-03-17T12:03:25.549Z,96433.84
2023-03-17T12:05:58.201Z,96417.94
2023-03-17T12:08:37.709Z,96424.94
2023-03-17T12:11:10.621Z,96425.53
2023-03-17T12:13:43.154Z,96426.22
2023-03-17T12:16:22.949Z,96409.50
2023-03-17T12:19:01.886Z,96412.28
2023-03-17T12:21:45.617Z,96415.44
2023-03-17T12:24:20.051Z,96411.41
2023-03-17T12:27:00.548Z,96408.69
2023-03-17T12:29:43.739Z,96407.59
2023-03-17T12:32:19.681Z,96399.94
2023-03-17T12:35:02.422Z,96407.25
2023-03-17T12:37:30.179Z,96405.72
2023-03-17T12:40:02.375Z,96402.06
2023-03-17T12:42:38.121Z,96400.94
2023-03-17T12:45:48.380Z,96399.50
2023-03-17T12:48:38.657Z,96399.94
2023-03-17T12:51:23.749Z,96394.53
2023-03-17T12:53:51.472Z,96398.59
2023-03-17T12:56:26.362Z,96397.47
2023-03-17T12:59:06.109Z,96393.66
2023-03-17T13:01:38.916Z,96384.22
2023-03-17T13:04:27.351Z,96373.91
2023-03-17T13:07:14.467Z,96369.31
2023-03-17T13:10:11.680Z,96366.38
2023-03-17T13:12:41.922Z,96367.38
2023-03-17T13:15:28.210Z,96367.84
2023-03-17T13:18:16.228Z,96364.03
2023-03-17T13:20:57.557Z,96358.88
2023-03-17T13:23:35.564Z,96354.81
2023-03-17T13:26:02.902Z,96349.06
2023-03-17T13:28:35.556Z,96345.13
2023-03-17T13:31:20.517Z,96354.28
2023-03-17T13:33:54.471Z,96342.81
2023-03-17T13:36:47.751Z,96340.31
2023-03-17T13:39:59.553Z,96337.88
2023-03-17T13:42:37.933Z,96335.44
2023-03-17T13:45:07.407Z,96329.41
2023-03-17T13:47:42.192Z,96330.19
2023-03-17T13:50:16.997Z,96330.97
2023-03-17T13:52:49.190Z,96324.44
2023-03-17T13:55:18.617Z,96319.53
2023-03-17T13:58:14.487Z,96320.31
2023-03-17T14:00:51.541Z,96318.50
2023-03-17T14:03:27.395Z,96307.00
2023-03-17T14:05:55.325Z,96318.47
2023-03-17T14:08:35.627Z,96323.06
2023-03-17T14:11:08.816Z,96313.56
2023-03-17T14:13:50.497Z,96314.34
2023-03-17T14:16:24.465Z,96320.28
2023-03-17T14:19:00.312Z,96314.34
2023-03-17T14:21:32.602Z,96310.28
2023-03-17T14:24:01.895Z,96312.16
2023-03-17T14:26:31.295Z,96311.06
2023-03-17T14:29:03.591Z,96308.34
2023-03-17T14:31:30.682Z,96302.88
2023-03-17T14:33:59.175Z,96314.41
2023-03-17T14:36:27.972Z,96303.31
2023-03-17T14:38:56.850Z,96308.34
2023-03-17T14:41:26.200Z,96302.75
2023-03-17T14:43:57.159Z,96308.91
2023-03-17T14:46:34.433Z,96313.72
2023-03-17T14:49:04.215Z,96306.03
2023-03-17T14:51:39.536Z,96304.09
2023-03-17T14:54:19.409Z,96298.94
2023-03-17T14:56:50.924Z,96302.75
2023-03-17T14:59:38.358Z,96302.63
2023-03-17T15:02:21.458Z,96297.56
2023-03-17T15:05:09.565Z,96299.38
2023-03-17T15:07:39.843Z,96285.56
2023-03-17T15:10:15.794Z,96292.13
2023-03-17T15:12:42.942Z,96284.63
2023-03-17T15:15:21.481Z,96286.66
2023-03-17T15:17:51.821Z,96290.84
2023-03-17T15:20:19.964Z,96292.91
2023-03-17T15:22:56.075Z,96290.84
2023-03-17T15:25:29.069Z,96282.66
2023-03-17T15:27:56.123Z,96283.97
2023-03-17T15:30:22.853Z,96277.69
2023-03-17T15:32:59.440Z,96282.34
2023-03-17T15:35:27.273Z,96275.78
2023-03-17T15:37:54.748Z,96282.97
2023-03-17T15:40:22.182Z,96278.31
2023-03-17T15:42:48.639Z,96273.97
2023-03-17T15:45:16.306Z,96280.13
2023-03-17T15:47:45.334Z,96285.22
2023-03-17T15:50:22.171Z,96283.34
2023-03-17T15:52:48.555Z,96278.34
2023-03-17T15:55:29.413Z,96271.28
2023-03-17T15:57:57.151Z,96280.63
2023-03-17T16:00:26.716Z,96277.94
2023-03-17T16:02:55.136Z,96280.34
2023-03-17T16:05:27.443Z,96268.56
2023-03-17T16:07:54.736Z,96275.97
2023-03-17T16:10:22.422Z,96269.06
2023-03-17T16:12:49.275Z,96270.03
2023-03-17T16:15:23.090Z,96262.31
2023-03-17T16:17:53.862Z,96265.91
2023-03-17T16:20:32.116Z,96255.81
2023-03-17T16:23:04.726Z,96269.94
2023-03-17T16:25:33.400Z,96272.50
2023-03-17T16:28:01.953Z,96268.28
2023-03-17T16:30:31.779Z,96269.41
2023-03-17T16:33:02.311Z,96267.56
2023-03-17T16:35:29.179Z,96271.84
2023-03-17T16:37:55.667Z,96268.50
2023-03-17T16:40:34.435Z,96272.91
2023-03-17T16:43:08.289Z,96268.22
2023-03-17T16:45:39.363Z,96278.72
2023-03-17T16:48:05.885Z,96277.75
2023-03-17T16:50:33.932Z,96287.44
2023-03-17T16:53:00.676Z,96285.44
2023-03-17T16:55:29.171Z,96281.31
2023-03-17T16:57:58.948Z,96289.00
2023-03-17T17:00:28.205Z,96300.66
2023-03-17T17:02:55.155Z,96296.91
2023-03-17T17:05:28.040Z,96296.69
2023-03-17T17:07:56.770Z,96309.50
2023-03-17T17:10:24.835Z,96307.16
2023-03-17T17:12:51.487Z,96310.69
2023-03-17T17:15:19.840Z,96313.25
2023-03-17T17:17:53.825Z,96314.22
2023-03-17T17:20:25.537Z,96312.44
2023-03-17T17:22:52.018Z,96322.50
2023-03-17T17:25:18.590Z,96323.16
2023-03-17T17:27:46.495Z,96321.06
2023-03-17T17:30:19.080Z,96336.78
2023-03-17T17:32:46.744Z,96340.88
2023-03-17T17:35:16.031Z,96337.53
2023-03-17T17:37:43.094Z,96340.28
2023-03-17T17:40:15.480Z,96341.06
2023-03-17T17:42:43.217Z,96345.25
2023-03-17T17:45:10.492Z,96342.31
2023-03-17T17:47:36.995Z,96337.88
2023-03-17T17:50:04.266Z,96338.16
2023-03-17T17:52:30.704Z,96336.19
2023-03-17T17:54:57.402Z,96338.38
2023-03-17T17:57:24.203Z,96351.81
2023-03-17T17:59:50.871Z,96346.47
2023-03-17T18:02:17.272Z,96359.69
2023-03-17T18:04:43.760Z,96350.38
2023-03-17T18:07:10.335Z,96356.13
2023-03-17T18:09:37.287Z,96355.91
2023-03-17T18:12:07.771Z,96351.59
2023-03-17T18:14:34.196Z,96361.22
2023-03-17T18:17:00.845Z,96357.34
2023-03-17T18:19:27.369Z,96365.72
2023-03-17T18:21:53.775Z,96374.44
2023-03-17T18:24:20.195Z,96371.66
2023-03-17T18:26:46.646Z,96366.94
2023-03-17T18:29:13.045Z,96361.88
2023-03-17T18:31:46.125Z,96369.09
2023-03-17T18:34:29.937Z,96366.09
2023-03-17T18:36:59.319Z,96367.88
2023-03-17T18:39:26.309Z,96370.81
2023-03-17T18:41:52.845Z,96370.63
2023-03-17T18:44:21.476Z,96375.88
2023-03-17T18:46:48.424Z,96388.06
2023-03-17T18:49:14.812Z,96382.03
2023-03-17T18:51:41.202Z,96396.44
2023-03-17T18:54:08.937Z,96393.34
2023-03-17T18:56:35.660Z,96396.50
2023-03-17T18:59:02.168Z,96401.72
2023-03-17T19:01:28.650Z,96399.66
2023-03-17T19:03:55.439Z,96404.97
2023-03-17T19:06:23.176Z,96411.22
2023-03-17T19:08:49.869Z,96413.22
2023-03-17T19:11:18.428Z,96410.19
2023-03-17T19:13:45.728Z,96414.38
2023-03-17T19:16:12.990Z,96414.09
2023-03-17T19:18:42.194Z,96411.44
2023-03-17T19:21:09.819Z,96411.44
2023-03-17T19:23:38.165Z,96419.13
2023-03-17T19:26:05.728Z,96416.63
2023-03-17T19:28:33.030Z,96408.78
2023-03-17T19:30:59.627Z,96404.00
2023-03-17T19:33:26.462Z,96405.19
2023-03-17T19:35:55.964Z,96406.44
2023-03-17T19:38:24.042Z,96410.63
2023-03-17T19:40:50.706Z,96409.63
2023-03-17T19:43:32.579Z,96410.75
2023-03-17T19:46:04.097Z,96415.63
2023-03-17T19:48:30.584Z,96417.81
2023-03-17T19:50:57.525Z,96418.72
2023-03-17T19:53:23.941Z,96415.41
2023-03-17T19:55:50.431Z,96416.06
2023-03-17T19:58:16.889Z,96424.50
2023-03-17T20:00:43.342Z,96429.97
2023-03-17T20:03:09.760Z,96430.16
2023-03-17T20:05:36.274Z,96434.22
2023-03-17T20:08:02.929Z,96425.75
2023-03-17T20:10:29.719Z,96433.75
2023-03-17T20:12:56.586Z,96424.75
2023-03-17T20:15:22.983Z,96432.75
2023-03-17T20:17:49.666Z,96435.91
2023-03-17T20:20:16.221Z,96429.84
2023-03-17T20:22:43.619Z,96440.78
2023-03-17T20:25:10.843Z,96440.28
2023-03-17T20:27:37.951Z,96442.97
2023-03-17T20:30:07.219Z,96446.34
2023-03-17T20:32:34.484Z,96448.97
2023-03-17T20:35:01.365Z,96447.06
2023-03-17T20:37:27.753Z,96450.19
2023-03-17T20:39:54.382Z,96447.47
2023-03-17T20:42:20.965Z,96459.19
2023-03-17T20:44:52.719Z,96449.75
2023-03-17T20:47:22.697Z,96460.97
2023-03-17T20:49:50.512Z,96452.53
2023-03-17T20:52:17.444Z,96447.03
2023-03-17T20:54:43.962Z,96448.16
2023-03-17T20:57:12.357Z,96447.88
2023-03-17T20:59:38.924Z,96451.09
2023-03-17T21:02:05.462Z,96456.16
2023-03-17T21:04:32.110Z,96457.00
2023-03-17T21:06:58.782Z,96452.78
2023-03-17T21:09:25.256Z,96446.44
2023-03-17T21:11:51.895Z,96454.66
2023-03-17T21:14:18.396Z,96451.78
2023-03-17T21:16:47.096Z,96461.00
2023-03-17T21:19:15.334Z,96460.50
2023-03-17T21:21:41.933Z,96460.75
2023-03-17T21:24:22.022Z,96457.56
2023-03-17T21:26:48.385Z,96460.22
2023-03-17T21:29:14.851Z,96459.16
2023-03-17T21:31:41.533Z,96455.97
2023-03-17T21:34:08.118Z,96456.53
2023-03-17T21:36:34.575Z,96458.63
2023-03-17T21:39:01.459Z,96458.38
2023-03-17T21:41:33.831Z,96456.50
2023-03-17T21:44:01.575Z,96460.72
2023-03-17T21:46:27.917Z,96463.09
2023-03-17T21:48:54.451Z,96462.31
2023-03-17T21:51:20.974Z,96467.59
2023-03-17T21:53:47.573Z,96467.59
2023-03-17T21:56:14.527Z,96463.88
2023-03-17T21:58:41.195Z,96468.91
2023-03-17T22:01:07.784Z,96471.78
2023-03-17T22:03:34.607Z,96468.09
2023-03-17T22:06:01.235Z,96468.59
2023-03-17T22:08:29.019Z,96472.03
2023-03-17T22:10:55.554Z,96472.81
2023-03-17T22:13:22.073Z,96460.63
2023-03-17T22:15:48.625Z,96464.34
2023-03-17T22:18:15.051Z,96486.00
2023-03-17T22:20:41.512Z,96486.50
2023-03-17T22:23:08.251Z,96496.81
2023-03-17T22:25:34.716Z,96492.84
2023-03-17T22:28:01.274Z,96484.88
2023-03-17T22:30:27.714Z,96489.09
2023-03-17T22:32:54.290Z,96489.63
2023-03-17T22:35:23.286Z,96494.38
2023-03-17T22:37:49.725Z,96510.72
2023-03-17T22:40:18.117Z,96504.34
2023-03-17T22:42:44.507Z,96512.72
2023-03-17T22:45:13.094Z,96505.78
2023-03-17T22:47:39.632Z,96512.63
2023-03-17T22:50:06.419Z,96518.91
2023-03-17T22:52:32.921Z,96511.72
2023-03-17T22:54:59.347Z,96511.38
2023-03-17T22:57:25.895Z,96517.66
2023-03-17T22:59:52.382Z,96519.47
2023-03-17T23:02:18.887Z,96523.13
2023-03-17T23:04:45.463Z,96522.59
2023-03-17T23:07:11.900Z,96524.41
2023-03-17T23:09:40.442Z,96535.72
2023-03-17T23:12:08.025Z,96534.34
2023-03-17T23:14:34.526Z,96531.66
2023-03-17T23:17:01.026Z,96539.81
2023-03-17T23:19:27.444Z,96535.88
2023-03-17T23:21:53.895Z,96541.38
2023-03-17T23:24:20.344Z,96544.25
2023-03-17T23:26:47.102Z,96553.50
2023-03-17T23:29:13.594Z,96547.41
2023-03-17T23:31:40.870Z,96547.41
2023-03-17T23:34:08.716Z,96546.28
2023-03-17T23:36:38.201Z,96552.03
2023-03-17T23:39:05.109Z,96556.75
2023-03-17T23:41:31.908Z,96568.34
2023-03-17T23:43:58.566Z,96564.59
2023-03-17T23:46:25.884Z,96562.47
2023-03-17T23:48:53.266Z,96560.31
2023-03-17T23:51:19.784Z,96555.56
2023-03-17T23:53:46.405Z,96557.63
2023-03-17T23:56:13.080Z,96563.41
2023-03-17T23:58:41.545Z,96558.63
